Time;durP1;ratioP1;P1;durP2;ratioP2;P2;SDS_P1;SDS_P2;PMS_P1;PMS_P2;Temp;Humidity;BMP_temperature;BMP_pressure;BME280_temperature;BME280_humidity;BME280_pressure;Samples;Min_cycle;Max_cycle;Signal;HPM_P1;HPM_P2
2021/04/22 00:00:39;;;;;;;14.38;7.65;;;;;;;8.82;58.55;95037.41;2983019;39;20082;-72
2021/04/22 00:02:40;;;;;;;13.35;7.43;;;;;;;8.92;58.06;95033.94;2985357;39;20436;-73
2021/04/22 00:04:42;;;;;;;12.68;7.20;;;;;;;8.97;57.74;95037.81;2988030;39;20051;-73
2021/04/22 00:06:44;;;;;;;12.63;8.32;;;;;;;9.04;57.67;95038.06;2992782;39;20376;-71
2021/04/22 00:08:46;;;;;;;11.73;6.97;;;;;;;9.10;57.10;95036.66;2991529;39;20047;-72
2021/04/22 00:10:50;;;;;;;11.40;6.75;;;;;;;9.13;56.66;95028.53;2989502;39;20083;-85
2021/04/22 00:12:51;;;;;;;12.32;7.45;;;;;;;9.13;57.54;95039.00;2987939;39;20041;-71
2021/04/22 00:14:52;;;;;;;15.90;7.53;;;;;;;9.16;57.22;95028.25;2996397;39;20075;-72
2021/04/22 00:16:53;;;;;;;14.45;7.45;;;;;;;9.19;57.50;95028.78;2981105;39;20083;-72
2021/04/22 00:18:55;;;;;;;11.10;7.05;;;;;;;9.19;57.95;95028.78;2975105;39;20588;-71
2021/04/22 00:20:56;;;;;;;11.73;8.32;;;;;;;9.21;56.74;95026.88;2989563;39;20279;-71
2021/04/22 00:22:58;;;;;;;11.43;7.70;;;;;;;9.21;57.04;95020.81;2982873;39;20075;-72
2021/04/22 00:25:03;;;;;;;14.18;7.18;;;;;;;9.23;56.90;95024.13;2991668;39;20047;-72
2021/04/22 00:27:04;;;;;;;14.60;7.85;;;;;;;9.17;57.29;95020.28;2992627;39;20393;-72
2021/04/22 00:29:06;;;;;;;10.95;7.03;;;;;;;9.02;57.67;95022.50;2995729;39;20143;-82
2021/04/22 00:31:07;;;;;;;13.50;7.82;;;;;;;9.05;58.11;95031.03;2987573;39;20069;-85
2021/04/22 00:33:11;;;;;;;12.55;7.35;;;;;;;9.02;57.45;95027.72;2991233;39;20044;-83
2021/04/22 00:35:12;;;;;;;;;;;;;;;8.90;57.77;95028.03;2989745;39;20462;-82
2021/04/22 00:37:13;;;;;;;13.73;7.05;;;;;;;8.82;58.56;95026.16;3004429;39;19931;-85
2021/04/22 00:39:14;;;;;;;14.52;7.43;;;;;;;8.86;58.38;95032.72;2997381;39;20424;-83
2021/04/22 00:41:16;;;;;;;11.18;7.10;;;;;;;8.85;57.80;95028.47;2996070;39;20114;-86
2021/04/22 00:43:18;;;;;;;11.73;7.35;;;;;;;8.83;58.57;95033.00;2995674;39;20404;-83
2021/04/22 00:45:20;;;;;;;12.75;7.22;;;;;;;8.51;58.34;95034.13;2986374;39;20044;-82
2021/04/22 00:47:21;;;;;;;11.80;6.78;;;;;;;8.51;58.41;95031.50;2995554;39;20038;-83
2021/04/22 00:49:26;;;;;;;11.98;6.55;;;;;;;8.58;58.68;95040.47;2986171;39;20044;-83
2021/04/22 00:51:28;;;;;;;15.88;6.97;;;;;;;8.69;58.74;95033.41;2995721;39;20083;-83
2021/04/22 00:53:30;;;;;;;12.45;7.82;;;;;;;8.72;58.90;95031.38;2986164;39;20064;-85
2021/04/22 00:55:32;;;;;;;10.50;7.20;;;;;;;8.74;58.62;95029.44;2979232;40;20072;-83
2021/04/22 00:57:33;;;;;;;10.20;7.28;;;;;;;8.79;58.25;95035.06;2986017;39;20075;-82
2021/04/22 00:59:35;;;;;;;12.60;7.25;;;;;;;8.79;58.41;95036.84;2997943;39;20242;-84
2021/04/22 01:01:36;;;;;;;11.40;6.97;;;;;;;8.66;58.11;95036.31;2995483;39;20065;-85
2021/04/22 01:03:38;;;;;;;12.02;7.30;;;;;;;8.60;58.86;95049.00;2986504;39;20408;-84
2021/04/22 01:05:43;;;;;;;14.63;7.35;;;;;;;8.64;59.09;95048.69;2990128;39;20035;-85
2021/04/22 01:07:45;;;;;;;13.82;7.80;;;;;;;8.60;58.67;95043.75;2984685;39;20404;-84
2021/04/22 01:09:46;;;;;;;14.07;7.30;;;;;;;8.54;58.37;95044.31;2989490;39;20043;-85
2021/04/22 01:11:47;;;;;;;13.05;8.25;;;;;;;8.52;59.04;95048.03;3001694;39;20416;-85
2021/04/22 01:13:48;;;;;;;11.85;7.38;;;;;;;8.52;58.71;95041.00;3004922;39;20092;-83
2021/04/22 01:15:50;;;;;;;10.90;6.80;;;;;;;8.52;59.05;95046.25;2989662;39;20067;-83
2021/04/22 01:17:52;;;;;;;12.77;8.30;;;;;;;8.52;58.90;95046.25;2998783;39;20098;-84
2021/04/22 01:19:53;;;;;;;16.20;7.85;;;;;;;8.53;58.47;95045.25;2981314;39;20519;-85
2021/04/22 01:21:55;;;;;;;13.75;7.95;;;;;;;8.51;58.55;95041.97;2989608;39;20071;-83
2021/04/22 01:23:56;;;;;;;15.85;7.97;;;;;;;8.48;58.55;95044.88;2999036;39;20066;-84
2021/04/22 01:25:57;;;;;;;15.30;8.93;;;;;;;8.46;58.94;95038.94;2992221;39;20032;-83
2021/04/22 01:28:00;;;;;;;15.77;9.90;;;;;;;8.45;59.36;95042.50;3002508;39;20047;-84
2021/04/22 01:30:04;;;;;;;16.98;9.45;;;;;;;8.46;59.37;95044.16;2991666;39;20047;-71
2021/04/22 01:32:06;;;;;;;13.65;9.07;;;;;;;8.51;59.62;95035.91;2974812;39;20087;-71
2021/04/22 01:34:10;;;;;;;15.88;9.48;;;;;;;8.53;59.72;95044.44;2984695;39;20063;-72
2021/04/22 01:36:11;;;;;;;15.00;9.30;;;;;;;8.51;59.14;95038.53;2994620;39;20345;-72
2021/04/22 01:38:12;;;;;;;15.80;9.02;;;;;;;8.50;59.16;95042.13;2993872;39;20419;-72
2021/04/22 01:40:15;;;;;;;17.63;9.20;;;;;;;8.50;58.58;95037.72;2983278;39;20408;-73
2021/04/22 01:42:16;;;;;;;17.60;8.93;;;;;;;8.54;58.85;95041.69;2981524;39;20043;-70
2021/04/22 01:44:17;;;;;;;14.75;8.52;;;;;;;8.59;59.04;95047.31;2994724;39;20143;-73
2021/04/22 01:46:19;;;;;;;13.10;8.70;;;;;;;8.59;58.52;95039.50;2994622;39;20079;-72
2021/04/22 01:48:20;;;;;;;18.05;9.60;;;;;;;8.58;58.73;95040.47;2995051;39;20428;-73
2021/04/22 01:50:25;;;;;;;17.27;10.10;;;;;;;8.59;58.68;95042.09;2994035;39;20039;-72
2021/04/22 01:52:26;;;;;;;16.00;9.63;;;;;;;8.59;58.49;95042.09;2991860;39;20076;-73
2021/04/22 01:54:27;;;;;;;14.95;8.50;;;;;;;8.58;58.24;95042.22;2994061;39;20418;-74
2021/04/22 01:56:29;;;;;;;15.18;8.48;;;;;;;8.53;59.75;95047.88;2994228;39;20066;-72
2021/04/22 01:58:30;;;;;;;15.40;8.40;;;;;;;8.54;59.58;95036.47;2994868;39;20054;-71
2021/04/22 02:00:37;;;;;;;12.30;8.05;;;;;;;8.41;60.13;95035.94;2985058;39;20107;-73
2021/04/22 02:02:39;;;;;;;11.95;7.63;;;;;;;8.17;59.61;95041.50;2996323;39;20051;-74
2021/04/22 02:04:40;;;;;;;12.63;7.95;;;;;;;7.55;61.61;95038.19;2986121;39;20070;-72
2021/04/22 02:06:42;;;;;;;13.35;7.53;;;;;;;7.08;62.64;95045.72;2999136;39;20043;-72
2021/04/22 02:08:43;;;;;;;14.13;7.28;;;;;;;7.15;62.84;95039.84;2993516;39;20450;-71
2021/04/22 02:10:45;;;;;;;16.30;7.93;;;;;;;7.34;62.57;95038.28;2990122;39;20057;-73
2021/04/22 02:12:47;;;;;;;14.38;7.53;;;;;;;7.44;62.29;95046.13;2992415;39;20055;-72
2021/04/22 02:14:48;;;;;;;13.90;7.50;;;;;;;7.54;61.88;95039.16;2992143;39;20491;-72
2021/04/22 02:16:49;;;;;;;11.77;6.78;;;;;;;7.64;61.28;95032.22;2992617;39;20055;-71
2021/04/22 02:18:51;;;;;;;11.10;6.72;;;;;;;7.69;61.04;95034.41;2993147;39;20363;-72
2021/04/22 02:20:53;;;;;;;13.18;7.25;;;;;;;7.68;60.94;95038.81;2981884;39;20087;-72
2021/04/22 02:22:54;;;;;;;11.85;6.57;;;;;;;7.76;60.97;95044.16;2981671;39;20051;-72
2021/04/22 02:24:56;;;;;;;14.35;7.05;;;;;;;7.83;60.89;95046.25;2982576;39;20043;-72
2021/04/22 02:26:57;;;;;;;9.25;5.75;;;;;;;7.85;60.12;95049.53;2993205;39;20179;-72
2021/04/22 02:28:58;;;;;;;12.95;6.65;;;;;;;7.87;60.00;95050.25;2991095;39;20080;-72
2021/04/22 02:30:59;;;;;;;10.35;6.45;;;;;;;7.90;59.93;95052.59;2988342;39;20178;-71
2021/04/22 02:33:02;;;;;;;10.38;6.53;;;;;;;7.93;60.11;95041.88;2982894;39;20398;-71
2021/04/22 02:35:06;;;;;;;10.07;6.43;;;;;;;7.93;60.38;95040.09;2980250;39;20367;-72
2021/04/22 02:37:07;;;;;;;11.43;7.03;;;;;;;7.91;60.50;95038.59;2983384;39;20414;-72
2021/04/22 02:39:09;;;;;;;10.90;6.38;;;;;;;7.88;60.50;95041.47;2981097;39;20052;-72
2021/04/22 02:41:10;;;;;;;10.07;6.72;;;;;;;7.89;60.14;95048.31;2989082;39;20418;-70
2021/04/22 02:43:13;;;;;;;10.68;6.35;;;;;;;7.88;60.89;95046.69;2992748;39;20087;-70
2021/04/22 02:45:18;;;;;;;14.07;7.00;;;;;;;7.89;60.63;95051.75;2976796;39;20096;-72
2021/04/22 02:47:19;;;;;;;12.32;6.60;;;;;;;7.91;60.87;95055.06;2982483;39;20088;-72
2021/04/22 02:49:20;;;;;;;11.20;6.53;;;;;;;7.93;60.77;95055.75;2983270;39;20128;-72
2021/04/22 02:51:21;;;;;;;11.90;6.47;;;;;;;7.94;60.27;95051.38;2982947;39;20386;-72
2021/04/22 02:53:23;;;;;;;9.95;6.55;;;;;;;7.94;60.62;95051.38;2989195;39;20087;-72
2021/04/22 02:55:25;;;;;;;13.20;7.03;;;;;;;7.91;60.30;95055.06;2982772;39;20463;-72
2021/04/22 02:57:46;;;;;;;11.18;6.75;;;;;;;7.85;60.81;95057.38;2991139;39;20550;-72
2021/04/22 02:59:47;;;;;;;13.50;7.22;;;;;;;7.82;60.96;95053.25;2987221;39;20323;-72
2021/04/22 03:01:49;;;;;;;11.05;6.80;;;;;;;7.79;61.28;95048.31;2991978;39;20071;-71
2021/04/22 03:03:50;;;;;;;10.90;6.55;;;;;;;7.83;61.38;95051.47;2993242;39;20745;-70
2021/04/22 03:05:54;;;;;;;9.10;6.70;;;;;;;7.88;61.13;95055.34;2992436;39;20083;-72
2021/04/22 03:07:56;;;;;;;9.95;6.65;;;;;;;7.90;61.14;95050.00;2990555;39;20051;-83
2021/04/22 03:09:57;;;;;;;12.65;7.43;;;;;;;7.89;60.86;95046.53;2997173;39;20360;-85
2021/04/22 03:11:58;;;;;;;11.80;7.13;;;;;;;7.89;60.89;95053.53;2987187;39;20439;-85
2021/04/22 03:13:59;;;;;;;13.57;7.32;;;;;;;7.95;60.88;95053.00;2978779;40;20361;-84
2021/04/22 03:16:01;;;;;;;11.82;6.43;;;;;;;7.98;60.15;95055.38;2995970;39;20050;-84
2021/04/22 03:18:03;;;;;;;16.30;7.68;;;;;;;7.98;60.48;95055.38;2986576;39;20042;-86
2021/04/22 03:20:05;;;;;;;14.45;8.27;;;;;;;7.96;61.06;95054.69;2987127;39;20417;-84
2021/04/22 03:22:07;;;;;;;14.40;6.90;;;;;;;7.89;61.73;95067.41;2991121;39;20079;-85
2021/04/22 03:24:09;;;;;;;11.38;7.07;;;;;;;7.86;62.12;95059.03;2995622;39;20174;-84
2021/04/22 03:26:10;;;;;;;14.07;7.68;;;;;;;7.83;61.52;95059.28;2997576;39;20059;-84
2021/04/22 03:28:11;;;;;;;12.68;6.40;;;;;;;7.71;61.18;95062.00;2994092;39;20048;-81
2021/04/22 03:30:15;;;;;;;14.35;7.18;;;;;;;7.53;61.80;95064.44;3000745;39;20024;-83
2021/04/22 03:32:16;;;;;;;17.55;7.57;;;;;;;7.49;61.89;95059.59;2999065;39;20467;-84
2021/04/22 03:34:18;;;;;;;12.02;7.13;;;;;;;7.38;62.49;95068.34;2998985;39;20031;-85
2021/04/22 03:36:19;;;;;;;12.75;7.25;;;;;;;7.39;62.55;95070.81;2989386;39;20055;-84
2021/04/22 03:38:20;;;;;;;16.55;7.65;;;;;;;7.45;62.59;95071.25;2991770;39;20423;-83
2021/04/22 03:40:24;;;;;;;12.27;7.85;;;;;;;7.47;62.51;95064.13;2997060;39;20346;-85
2021/04/22 03:42:26;;;;;;;15.07;7.20;;;;;;;7.50;62.48;95067.28;3002915;39;20182;-82
2021/04/22 03:44:27;;;;;;;12.25;7.25;;;;;;;7.59;61.97;95063.91;2996520;39;20051;-86
2021/04/22 03:46:28;;;;;;;13.50;6.90;;;;;;;7.66;62.11;95066.81;2986794;39;20044;-84
2021/04/22 03:48:29;;;;;;;14.25;7.45;;;;;;;7.68;61.87;95069.25;2986971;39;20048;-83
2021/04/22 03:50:30;;;;;;;14.20;7.55;;;;;;;7.64;62.17;95073.94;2992501;39;20075;-85
2021/04/22 03:52:32;;;;;;;16.02;9.15;;;;;;;7.62;62.63;95072.41;2986719;39;20067;-84
2021/04/22 03:54:33;;;;;;;16.42;8.85;;;;;;;7.62;62.74;95078.44;2997039;39;20073;-84
2021/04/22 03:56:34;;;;;;;14.35;8.75;;;;;;;7.66;62.96;95077.22;2996540;39;20057;-83
2021/04/22 03:58:35;;;;;;;17.20;8.55;;;;;;;7.72;62.91;95081.09;2978687;39;20052;-84
2021/04/22 04:00:37;;;;;;;15.88;9.75;;;;;;;7.76;62.67;95075.47;2996234;39;20035;-84
2021/04/22 04:02:38;;;;;;;14.90;8.63;;;;;;;7.79;62.13;95084.84;2987556;39;20053;-84
2021/04/22 04:04:40;;;;;;;16.15;7.90;;;;;;;7.89;62.58;95082.22;2989506;39;20043;-84
2021/04/22 04:06:41;;;;;;;13.10;8.63;;;;;;;8.04;62.24;95088.72;2987105;39;20063;-84
2021/04/22 04:08:42;;;;;;;20.00;8.73;;;;;;;8.08;61.82;95084.88;2996075;39;20058;-85
2021/04/22 04:10:44;;;;;;;18.45;8.95;;;;;;;8.11;62.00;95087.25;2996423;39;20040;-84
2021/04/22 04:12:45;;;;;;;28.30;9.00;;;;;;;8.14;61.61;95100.00;2996186;39;20307;-86
2021/04/22 04:14:46;;;;;;;15.73;8.32;;;;;;;8.17;61.48;95089.31;2996286;39;20027;-84
2021/04/22 04:16:47;;;;;;;15.30;9.48;;;;;;;8.17;61.69;95097.16;3000995;39;20032;-84
2021/04/22 04:18:49;;;;;;;18.55;8.95;;;;;;;8.21;61.69;95106.34;2999652;39;20079;-83
2021/04/22 04:20:51;;;;;;;17.35;8.75;;;;;;;8.24;61.67;95097.44;3005540;39;20037;-85
2021/04/22 04:22:53;;;;;;;13.35;9.00;;;;;;;8.30;61.39;95096.91;2998170;39;20348;-85
2021/04/22 04:24:54;;;;;;;13.38;7.97;;;;;;;8.36;61.11;95106.78;2986792;39;20130;-86
2021/04/22 04:26:55;;;;;;;17.30;8.68;;;;;;;8.37;60.88;95105.84;2987172;39;20080;-84
2021/04/22 04:28:56;;;;;;;18.63;9.93;;;;;;;8.40;61.39;95109.94;2986713;39;20079;-82
2021/04/22 04:30:58;;;;;;;17.73;9.73;;;;;;;8.39;61.13;95114.34;2987163;39;20060;-83
2021/04/22 04:32:59;;;;;;;24.30;9.55;;;;;;;8.40;60.86;95115.19;2986929;39;20445;-85
2021/04/22 04:35:01;;;;;;;16.15;8.82;;;;;;;8.36;60.77;95113.78;2986622;39;20051;-83
2021/04/22 04:37:03;;;;;;;19.20;9.43;;;;;;;8.15;61.52;95114.72;2996323;39;20069;-86
2021/04/22 04:39:05;;;;;;;15.40;9.20;;;;;;;7.92;62.34;95115.91;2986077;39;20078;-83
2021/04/22 04:41:06;;;;;;;21.02;10.13;;;;;;;7.96;62.33;95120.72;2989603;39;20035;-84
2021/04/22 04:43:07;;;;;;;30.08;15.07;;;;;;;8.11;61.98;95121.16;3002512;39;20046;-83
2021/04/22 04:45:11;;;;;;;73.80;38.58;;;;;;;8.27;61.85;95122.44;2999375;39;20078;-85
2021/04/22 04:47:12;;;;;;;25.65;14.15;;;;;;;8.37;60.91;95120.69;2988109;39;20085;-84
2021/04/22 04:49:13;;;;;;;17.33;11.02;;;;;;;8.40;61.15;95131.69;2993454;39;20454;-71
2021/04/22 04:51:15;;;;;;;24.52;11.93;;;;;;;8.51;61.15;95122.91;2976060;39;20063;-74
2021/04/22 04:53:16;;;;;;;22.42;10.88;;;;;;;8.61;61.22;95126.34;2983072;39;20091;-73
2021/04/22 04:55:17;;;;;;;17.45;10.98;;;;;;;8.67;60.82;95135.44;2991162;39;20055;-71
2021/04/22 04:57:19;;;;;;;20.85;11.70;;;;;;;8.76;60.30;95137.22;2992025;39;20530;-71
2021/04/22 04:59:20;;;;;;;23.23;11.88;;;;;;;8.84;60.34;95136.56;2992377;39;20083;-71
2021/04/22 05:01:21;;;;;;;21.40;12.00;;;;;;;8.90;60.20;95138.59;2992458;39;20428;-72
2021/04/22 05:03:23;;;;;;;21.55;11.50;;;;;;;8.95;59.94;95136.41;2982556;39;20051;-73
2021/04/22 05:05:24;;;;;;;24.00;12.32;;;;;;;8.99;60.35;95134.31;2982645;39;20067;-70
2021/04/22 05:07:25;;;;;;;21.95;11.70;;;;;;;9.08;59.87;95140.50;2979730;39;20056;-72
2021/04/22 05:09:29;;;;;;;26.13;12.90;;;;;;;9.15;59.63;95139.00;2991863;39;20055;-72
2021/04/22 05:11:34;;;;;;;21.92;12.48;;;;;;;9.21;59.43;95141.06;2971618;39;20044;-73
2021/04/22 05:13:36;;;;;;;25.27;12.73;;;;;;;9.23;59.72;95142.56;2982745;39;20285;-71
2021/04/22 05:15:37;;;;;;;22.38;12.63;;;;;;;9.27;59.90;95140.50;2984188;39;20128;-84
2021/04/22 05:17:38;;;;;;;21.95;13.02;;;;;;;9.11;59.76;95142.84;2995452;39;20051;-83
2021/04/22 05:19:40;;;;;;;26.08;13.20;;;;;;;8.98;59.59;95145.75;2995823;39;20097;-87
2021/04/22 05:21:41;;;;;;;19.45;12.60;;;;;;;9.04;60.61;95149.63;2987142;39;20050;-85
2021/04/22 05:23:42;;;;;;;21.20;13.43;;;;;;;9.11;60.42;95151.50;2995560;39;20055;-84
2021/04/22 05:25:43;;;;;;;20.85;12.27;;;;;;;9.26;59.76;95157.16;2989351;39;20047;-85
2021/04/22 05:27:45;;;;;;;25.52;12.50;;;;;;;9.39;59.33;95154.25;2986865;39;20052;-84
2021/04/22 05:29:47;;;;;;;21.55;12.75;;;;;;;9.49;58.76;95146.38;2987132;39;20038;-86
2021/04/22 05:31:48;;;;;;;29.20;14.25;;;;;;;9.55;58.59;95153.63;2996882;39;20047;-86
2021/04/22 05:33:50;;;;;;;50.30;27.73;;;;;;;9.62;58.80;95142.47;2996728;39;20300;-83
2021/04/22 05:35:51;;;;;;;27.45;14.00;;;;;;;9.64;57.91;95158.03;2990181;39;20136;-84
2021/04/22 05:37:53;;;;;;;21.33;12.10;;;;;;;9.15;59.57;95158.13;2999797;39;20054;-86
2021/04/22 05:39:54;;;;;;;17.67;12.35;;;;;;;9.25;59.03;95155.50;2997477;39;20087;-86
2021/04/22 05:41:57;;;;;;;19.65;12.60;;;;;;;9.30;58.68;95155.91;2988071;39;20047;-85
2021/04/22 05:43:59;;;;;;;16.23;11.15;;;;;;;9.37;58.81;95162.22;2985779;39;20054;-71
2021/04/22 05:46:00;;;;;;;20.55;12.35;;;;;;;9.51;57.99;95160.16;2981893;39;20052;-74
2021/04/22 05:48:03;;;;;;;25.08;12.13;;;;;;;9.66;58.02;95158.72;2988909;39;20420;-74
2021/04/22 05:50:04;;;;;;;19.13;12.43;;;;;;;9.71;57.98;95158.28;2994039;39;20059;-74
2021/04/22 05:52:06;;;;;;;20.05;11.77;;;;;;;9.80;57.98;95157.44;2983643;39;20062;-75
2021/04/22 05:54:08;;;;;;;29.92;12.93;;;;;;;9.95;57.70;95158.63;2983423;39;20052;-72
2021/04/22 05:56:09;;;;;;;19.15;11.80;;;;;;;10.00;56.53;95164.25;2981714;39;20047;-72
2021/04/22 05:58:11;;;;;;;20.00;12.48;;;;;;;10.08;56.39;95152.22;2991195;39;20055;-73
2021/04/22 06:00:15;;;;;;;22.13;13.57;;;;;;;10.09;57.30;95159.94;2980752;39;20360;-74
2021/04/22 06:02:20;;;;;;;27.00;11.98;;;;;;;10.21;57.18;95155.34;2989140;39;20055;-74
2021/04/22 06:04:24;;;;;;;25.67;13.90;;;;;;;10.27;56.88;95148.69;2987998;39;20420;-76
2021/04/22 06:06:25;;;;;;;26.60;12.93;;;;;;;10.34;57.63;95155.03;2993882;39;20454;-74
2021/04/22 06:08:27;;;;;;;20.13;11.88;;;;;;;10.37;56.82;95149.50;2991171;39;20129;-73
2021/04/22 06:10:28;;;;;;;19.35;11.50;;;;;;;10.44;56.33;95148.75;2992466;39;20323;-73
2021/04/22 06:12:36;;;;;;;18.48;12.65;;;;;;;10.45;56.57;95149.56;2992813;39;20422;-74
2021/04/22 06:14:38;;;;;;;17.58;10.75;;;;;;;10.38;55.57;95151.97;2992884;39;20054;-74
2021/04/22 06:16:39;;;;;;;20.85;10.35;;;;;;;10.32;55.90;95152.53;2997446;39;20070;-86
2021/04/22 06:18:40;;;;;;;17.45;10.93;;;;;;;10.40;56.21;95151.81;2997559;39;20074;-88
2021/04/22 06:20:42;;;;;;;20.85;11.30;;;;;;;10.52;56.00;95155.91;2989605;39;20035;-89
2021/04/22 06:22:57;;;;;;;17.83;10.98;;;;;;;10.54;56.20;95159.19;3006428;39;20292;-86
2021/04/22 06:24:59;;;;;;;17.75;11.13;;;;;;;10.41;55.97;95163.94;3006422;39;20088;-86
2021/04/22 06:27:00;;;;;;;23.15;10.52;;;;;;;10.51;55.74;95151.63;3002990;39;20047;-87
2021/04/22 06:29:04;;;;;;;17.27;10.45;;;;;;;10.32;55.80;95154.34;2988988;39;20036;-86
2021/04/22 06:31:06;;;;;;;23.60;11.73;;;;;;;10.14;56.49;95151.66;2997511;39;20054;-87
2021/04/22 06:33:07;;;;;;;20.42;10.77;;;;;;;9.97;57.14;95158.47;2981573;40;20032;-86
2021/04/22 06:35:13;;;;;;;19.73;11.68;;;;;;;10.08;57.24;95157.47;2975069;39;20044;-87
2021/04/22 06:37:15;;;;;;;17.55;10.50;;;;;;;10.33;57.14;95145.53;2981611;40;20040;-87
2021/04/22 06:39:16;;;;;;;15.70;9.70;;;;;;;10.54;56.29;95150.50;2980738;40;20052;-84
2021/04/22 06:41:17;;;;;;;17.30;10.02;;;;;;;10.52;55.47;95155.91;2989387;39;20044;-86
2021/04/22 06:43:19;;;;;;;14.48;10.13;;;;;;;10.68;55.21;95149.19;2980372;40;20051;-88
2021/04/22 06:45:21;;;;;;;17.27;10.02;;;;;;;10.93;54.91;95156.31;2972049;40;20040;-88
2021/04/22 06:47:23;;;;;;;16.02;9.77;;;;;;;11.05;54.40;95160.31;2979800;40;20068;-85
2021/04/22 06:49:24;;;;;;;16.77;9.98;;;;;;;10.92;53.33;95152.00;2979378;39;20052;-85
2021/04/22 06:51:29;;;;;;;14.18;9.18;;;;;;;10.68;54.20;95146.56;2972372;39;20147;-86
2021/04/22 06:53:30;;;;;;;16.63;9.90;;;;;;;10.73;54.56;95152.16;2989447;39;20032;-85
2021/04/22 06:55:31;;;;;;;15.77;10.18;;;;;;;10.76;54.03;95155.31;2971944;40;20117;-87
2021/04/22 06:57:33;;;;;;;20.65;10.52;;;;;;;10.75;53.80;95152.84;2987907;39;20031;-90
2021/04/22 06:59:34;;;;;;;14.60;9.50;;;;;;;10.76;54.40;95149.25;2997358;39;20032;-84
2021/04/22 07:01:35;;;;;;;14.80;9.60;;;;;;;10.79;53.93;95157.63;2997719;39;20079;-86
2021/04/22 07:03:36;;;;;;;15.90;9.63;;;;;;;10.88;53.40;95150.66;2997900;39;20128;-86
2021/04/22 07:05:38;;;;;;;18.83;10.52;;;;;;;11.07;52.58;95162.81;2988654;39;20082;-88
2021/04/22 07:07:40;;;;;;;16.35;9.55;;;;;;;11.19;52.59;95153.72;2988277;39;20434;-87
2021/04/22 07:09:41;;;;;;;14.93;10.00;;;;;;;11.05;52.44;95157.69;2988374;39;20039;-88
2021/04/22 07:11:43;;;;;;;18.70;9.63;;;;;;;10.90;52.71;95153.97;2980763;39;20055;-89
2021/04/22 07:13:44;;;;;;;15.70;9.90;;;;;;;11.00;52.93;95153.91;2992552;39;20036;-87
2021/04/22 07:15:46;;;;;;;18.50;10.45;;;;;;;10.86;53.21;95156.06;2983963;39;20432;-86
2021/04/22 07:17:47;;;;;;;14.15;9.30;;;;;;;11.07;52.99;95147.88;2986070;39;20058;-73
2021/04/22 07:19:49;;;;;;;14.95;9.57;;;;;;;11.31;51.76;95158.72;2989600;39;20035;-87
2021/04/22 07:21:51;;;;;;;14.52;8.85;;;;;;;11.34;51.00;95150.56;2988009;39;20048;-87
2021/04/22 07:23:52;;;;;;;13.75;9.23;;;;;;;11.46;51.29;95158.06;2997530;39;20341;-88
2021/04/22 07:25:54;;;;;;;18.27;10.95;;;;;;;11.70;50.94;95153.91;2997296;39;20027;-84
2021/04/22 07:27:56;;;;;;;18.95;10.45;;;;;;;11.86;50.29;95158.44;2987424;39;20044;-88
2021/04/22 07:29:57;;;;;;;18.50;9.80;;;;;;;12.05;50.70;95158.25;2989361;39;20101;-88
2021/04/22 07:31:59;;;;;;;15.18;10.55;;;;;;;12.31;50.35;95160.00;2997832;39;20361;-89
2021/04/22 07:34:00;;;;;;;17.80;10.80;;;;;;;12.46;49.63;95157.59;2997110;39;20035;-87
2021/04/22 07:36:02;;;;;;;18.45;10.77;;;;;;;12.53;49.46;95158.59;2997883;39;20039;-86
2021/04/22 07:38:07;;;;;;;17.58;10.13;;;;;;;12.57;48.63;95161.75;2980039;39;20072;-88
2021/04/22 07:40:10;;;;;;;17.38;10.02;;;;;;;12.62;49.22;95164.72;2987264;39;20058;-88
2021/04/22 07:42:12;;;;;;;22.35;12.00;;;;;;;12.68;49.02;95159.63;2978878;40;20036;-89
2021/04/22 07:44:14;;;;;;;19.00;11.20;;;;;;;12.78;48.65;95154.25;2979081;39;20055;-86
2021/04/22 07:46:15;;;;;;;22.80;11.75;;;;;;;12.73;48.30;95155.69;2980028;39;20035;-74
2021/04/22 07:48:16;;;;;;;16.48;10.23;;;;;;;12.69;48.72;95158.66;2989787;39;20081;-75
2021/04/22 07:50:19;;;;;;;16.58;10.32;;;;;;;12.67;48.67;95154.56;2989859;39;20373;-74
2021/04/22 07:52:21;;;;;;;18.80;10.55;;;;;;;12.88;48.17;95152.28;2988991;39;20047;-72
2021/04/22 07:54:22;;;;;;;14.13;10.35;;;;;;;12.96;47.92;95151.47;2982332;39;20087;-72
2021/04/22 07:56:24;;;;;;;19.52;10.73;;;;;;;12.95;47.41;95147.22;2981606;39;20452;-73
2021/04/22 07:58:27;;;;;;;18.38;10.00;;;;;;;13.15;47.49;95147.72;2992533;39;20116;-74
2021/04/22 08:00:30;;;;;;;13.82;8.88;;;;;;;13.37;47.15;95151.53;2981134;39;20044;-85
2021/04/22 08:02:31;;;;;;;13.93;8.83;;;;;;;13.37;46.71;95153.34;2991166;39;20360;-87
2021/04/22 08:04:33;;;;;;;18.58;10.40;;;;;;;13.38;45.71;95145.28;2999680;39;20689;-87
2021/04/22 08:06:34;;;;;;;13.35;9.10;;;;;;;13.07;46.27;95143.25;2990256;39;20458;-88
2021/04/22 08:08:35;;;;;;;16.80;10.15;;;;;;;12.92;47.35;95147.50;2989450;39;20420;-88
2021/04/22 08:10:45;;;;;;;16.38;10.52;;;;;;;12.68;48.14;95140.41;2997556;39;20050;-89
2021/04/22 08:12:47;;;;;;;16.27;10.27;;;;;;;12.49;48.05;95134.44;2971539;39;20051;-88
2021/04/22 08:14:48;;;;;;;15.40;10.13;;;;;;;12.52;48.28;95135.09;2971736;40;20105;-86
2021/04/22 08:16:50;;;;;;;13.02;9.23;;;;;;;12.60;48.17;95127.25;2989868;39;20060;-85
2021/04/22 08:18:51;;;;;;;29.23;10.45;;;;;;;12.68;48.02;95127.28;2989705;39;20072;-85
2021/04/22 08:20:56;;;;;;;14.75;8.52;;;;;;;12.68;47.79;95122.84;2979596;40;20068;-88
2021/04/22 08:23:00;;;;;;;15.63;9.60;;;;;;;12.68;47.99;95122.84;2981513;39;20044;-87
2021/04/22 08:25:05;;;;;;;12.18;8.48;;;;;;;12.95;47.58;95118.28;2981690;39;20040;-88
2021/04/22 08:27:06;;;;;;;14.15;7.10;;;;;;;13.02;46.31;95119.25;2992739;39;20075;-87
2021/04/22 08:29:07;;;;;;;13.45;8.65;;;;;;;13.20;46.72;95120.91;2987299;39;20114;-85
2021/04/22 08:31:13;;;;;;;13.68;9.20;;;;;;;13.36;46.52;95118.31;2993034;39;20034;-85
2021/04/22 08:33:33;;;;;;;13.98;8.43;;;;;;;13.56;46.13;95112.69;2983150;39;20046;-87
2021/04/22 08:35:35;;;;;;;11.55;8.63;;;;;;;13.51;45.19;95110.56;2995187;39;20050;-86
2021/04/22 08:37:36;;;;;;;13.68;8.20;;;;;;;13.62;45.37;95109.41;2989518;39;20440;-86
2021/04/22 08:39:38;;;;;;;10.27;7.35;;;;;;;13.79;45.01;95112.78;2996277;39;20051;-75
2021/04/22 08:41:39;;;;;;;10.60;7.25;;;;;;;14.04;44.13;95111.72;2989305;39;20379;-72
2021/04/22 08:43:40;;;;;;;14.48;8.65;;;;;;;14.20;43.80;95116.13;2983040;39;20066;-75
2021/04/22 08:45:43;;;;;;;13.68;6.80;;;;;;;14.22;42.43;95106.25;2975498;39;20040;-73
2021/04/22 08:47:45;;;;;;;10.68;3.65;;;;;;;14.45;40.06;95106.28;2992551;39;20055;-74
2021/04/22 08:49:48;;;;;;;5.22;2.70;;;;;;;14.60;36.45;95098.47;2992391;39;20055;-74
2021/04/22 08:51:50;;;;;;;6.20;3.10;;;;;;;14.64;37.15;95097.13;2983220;39;20087;-72
2021/04/22 08:53:51;;;;;;;6.43;4.30;;;;;;;14.80;38.13;95100.66;2982402;39;20047;-72
2021/04/22 08:55:53;;;;;;;9.88;4.93;;;;;;;14.94;38.48;95099.91;2991488;39;20038;-73
2021/04/22 08:57:55;;;;;;;8.82;5.18;;;;;;;15.07;39.30;95102.78;2981567;39;20062;-73
2021/04/22 08:59:59;;;;;;;8.32;5.10;;;;;;;15.11;39.89;95101.44;2987796;39;20099;-88
2021/04/22 09:02:00;;;;;;;8.57;5.18;;;;;;;15.08;38.30;95091.25;2995394;39;20078;-90
2021/04/22 09:04:04;;;;;;;5.68;3.53;;;;;;;15.07;37.33;95100.13;2975390;39;20360;-73
2021/04/22 09:06:05;;;;;;;;;;;;;;;15.27;36.41;95089.09;2973635;39;20259;-73
2021/04/22 09:08:07;;;;;;;3.88;1.98;;;;;;;15.45;32.28;95086.16;2974587;39;20389;-73
2021/04/22 09:10:10;;;;;;;3.22;1.65;;;;;;;15.60;32.11;95089.63;2991484;39;20051;-73
2021/04/22 09:12:20;;;;;;;2.45;1.83;;;;;;;15.65;32.12;95081.97;2992156;39;20422;-75
2021/04/22 09:14:23;;;;;;;2.35;1.30;;;;;;;15.72;30.82;95077.66;2979754;39;20387;-75
2021/04/22 09:16:28;;;;;;;2.30;1.20;;;;;;;15.57;29.59;95074.13;2974183;39;20305;-75
2021/04/22 09:18:37;;;;;;;2.80;1.23;;;;;;;15.77;30.55;95083.19;2982637;39;20117;-74
2021/04/22 09:20:45;;;;;;;2.08;1.17;;;;;;;15.85;29.90;95074.38;2991743;39;20059;-72
2021/04/22 09:22:47;;;;;;;2.75;1.30;;;;;;;15.73;29.33;95079.28;2991618;39;20059;-73
2021/04/22 09:24:48;;;;;;;1.65;1.13;;;;;;;15.75;29.51;95076.47;2991232;39;20077;-73
2021/04/22 09:26:57;;;;;;;2.00;1.30;;;;;;;15.84;29.22;95071.91;2979111;39;20086;-72
2021/04/22 09:28:59;;;;;;;1.77;1.20;;;;;;;16.06;29.64;95059.59;3001635;39;20058;-76
2021/04/22 09:31:00;;;;;;;3.55;1.20;;;;;;;16.26;29.57;95055.38;2995153;39;20039;-73